Time;durP1;ratioP1;P1;durP2;ratioP2;P2;SDS_P1;SDS_P2;PMS_P1;PMS_P2;Temp;Humidity;BMP_temperature;BMP_pressure;BME280_temperature;BME280_humidity;BME280_pressure;Samples;Min_cycle;Max_cycle;Signal;HPM_P1;HPM_P2
2021/12/17 00:05:43;;;;;;;49.13;23.55;;;;;;;5.11;71.89;101258.69;5122480;28;20047;-68
2021/12/17 00:08:37;;;;;;;50.42;22.98;;;;;;;5.10;71.74;101249.09;5123242;29;20058;-68
2021/12/17 00:11:28;;;;;;;48.40;23.52;;;;;;;4.92;72.43;101232.19;5123411;29;20062;-68
2021/12/17 00:14:38;;;;;;;44.45;21.77;;;;;;;5.08;71.87;101235.13;5122740;29;20509;-68
2021/12/17 00:17:33;;;;;;;52.13;25.75;;;;;;;5.22;71.69;101241.69;5123066;28;20062;-68
2021/12/17 00:20:58;;;;;;;47.17;25.63;;;;;;;5.02;71.33;101243.25;5123670;28;20058;-68
2021/12/17 00:49:01;;;;;;;44.45;22.98;;;;;;;5.20;71.80;101210.19;5123379;28;20050;-67
2021/12/17 00:54:44;;;;;;;46.22;22.95;;;;;;;5.35;71.28;101211.38;5123162;28;20077;-67
2021/12/17 00:57:40;;;;;;;43.72;22.73;;;;;;;5.36;71.30;101207.84;5121500;28;20050;-67
2021/12/17 01:00:30;;;;;;;42.75;23.45;;;;;;;5.29;71.90;101208.97;5121920;29;20054;-67
2021/12/17 01:03:21;;;;;;;47.03;24.67;;;;;;;5.33;70.51;101205.31;5120794;28;20182;-67
2021/12/17 01:06:12;;;;;;;49.47;24.58;;;;;;;5.29;71.23;101201.94;5121544;29;20066;-66
2021/12/17 01:09:02;;;;;;;51.17;25.05;;;;;;;4.93;72.73;101205.00;5121657;29;20090;-66
2021/12/17 01:11:57;;;;;;;46.95;24.58;;;;;;;5.14;71.71;101195.47;5121040;29;20122;-66
2021/12/17 01:14:56;;;;;;;47.53;25.03;;;;;;;5.05;71.61;101205.47;5121963;28;20438;-68
2021/12/17 01:18:06;;;;;;;55.95;24.77;;;;;;;5.23;70.80;101203.94;5121366;29;20177;-68
2021/12/17 01:21:32;;;;;;;49.53;24.67;;;;;;;5.12;71.40;101228.00;5121560;29;20062;-66
2021/12/17 01:24:49;;;;;;;47.70;23.48;;;;;;;5.21;71.13;101222.41;5121222;29;20062;-68
2021/12/17 01:41:02;;;;;;;47.42;25.38;;;;;;;5.43;70.83;101240.94;5121818;29;20047;-66
2021/12/17 01:43:53;;;;;;;47.95;24.17;;;;;;;5.35;71.71;101235.91;5121295;28;20182;-66
2021/12/17 01:46:46;;;;;;;46.97;24.40;;;;;;;5.46;71.31;101232.03;5120660;28;20098;-66
2021/12/17 01:56:01;;;;;;;52.40;23.38;;;;;;;5.47;71.88;101229.38;5116141;29;20050;-66
2021/12/17 02:02:05;;;;;;;48.00;24.58;;;;;;;5.44;72.27;101221.59;5120619;29;20054;-66
2021/12/17 02:04:55;;;;;;;50.22;23.58;;;;;;;5.45;72.10;101214.53;5106526;29;20511;-68
2021/12/17 02:07:48;;;;;;;42.63;23.33;;;;;;;5.54;71.74;101212.44;5119887;28;20058;-66
2021/12/17 02:21:01;;;;;;;43.13;21.70;;;;;;;5.71;71.22;101201.25;5122088;28;20421;-66
2021/12/17 02:28:44;;;;;;;41.63;21.85;;;;;;;5.62;72.36;101191.06;5120015;29;20054;-67
2021/12/17 02:33:34;;;;;;;43.28;22.13;;;;;;;5.87;72.01;101196.28;5120701;28;20106;-67
2021/12/17 02:36:29;;;;;;;43.83;21.20;;;;;;;5.82;71.45;101192.94;5106779;29;20058;-67
2021/12/17 02:39:54;;;;;;;;;;;;;;;5.70;71.87;101196.94;5122741;28;20079;-67
2021/12/17 02:45:46;;;;;;;41.83;21.67;;;;;;;5.42;72.24;101191.81;5123961;28;20050;-67
2021/12/17 02:48:40;;;;;;;43.83;22.88;;;;;;;5.42;72.70;101178.69;5124216;29;20058;-67
2021/12/17 02:51:31;;;;;;;41.72;22.25;;;;;;;5.53;73.19;101184.41;5124095;28;20471;-67
2021/12/17 02:54:21;;;;;;;46.72;22.75;;;;;;;5.40;73.39;101184.00;5124488;28;20427;-67
2021/12/17 02:57:12;;;;;;;40.88;22.42;;;;;;;5.69;72.14;101176.75;5124105;29;20162;-67
2021/12/17 03:00:07;;;;;;;42.30;22.90;;;;;;;5.59;71.68;101155.19;5123905;29;20141;-68
2021/12/17 03:02:59;;;;;;;45.20;23.52;;;;;;;5.80;71.67;101165.84;5124732;29;20046;-67
2021/12/17 03:05:50;;;;;;;44.33;23.10;;;;;;;5.48;72.37;101167.91;5121593;28;20070;-67
2021/12/17 03:08:41;;;;;;;45.65;23.40;;;;;;;5.60;72.57;101167.47;5120572;29;20054;-67
2021/12/17 03:11:31;;;;;;;43.63;21.08;;;;;;;5.71;71.91;101172.31;5123167;28;20965;-67
2021/12/17 03:14:21;;;;;;;42.97;22.33;;;;;;;5.72;71.96;101170.53;5123985;28;20062;-67
2021/12/17 03:17:18;;;;;;;43.83;22.80;;;;;;;5.84;71.71;101173.53;5124668;28;20477;-67
2021/12/17 03:23:30;;;;;;;40.63;22.60;;;;;;;5.72;72.15;101178.44;5124141;29;20061;-67
2021/12/17 03:26:25;;;;;;;38.75;22.75;;;;;;;5.74;71.90;101169.56;5120998;28;20136;-67
2021/12/17 03:29:16;;;;;;;41.90;22.25;;;;;;;5.74;71.58;101163.44;5124161;29;20051;-67
2021/12/17 03:32:11;;;;;;;43.35;23.00;;;;;;;5.80;70.99;101174.59;5123014;29;20051;-67
2021/12/17 03:35:02;;;;;;;39.50;21.75;;;;;;;5.82;71.55;101190.31;5117445;28;20138;-67
2021/12/17 03:37:52;;;;;;;43.47;22.08;;;;;;;5.84;71.46;101185.84;5123088;28;20474;-68
2021/12/17 03:40:44;;;;;;;41.72;22.00;;;;;;;5.83;72.12;101178.88;5123295;29;20102;-67
2021/12/17 03:43:43;;;;;;;44.15;22.60;;;;;;;5.51;73.32;101185.38;5123346;29;20054;-67
2021/12/17 03:46:34;;;;;;;40.53;22.42;;;;;;;5.70;72.38;101175.00;5122771;29;20058;-66
2021/12/17 03:49:25;;;;;;;41.33;21.52;;;;;;;5.80;71.60;101187.75;5124319;28;20213;-68
2021/12/17 03:52:16;;;;;;;38.80;21.75;;;;;;;5.95;71.11;101190.72;5109743;29;20055;-68
2021/12/17 03:55:09;;;;;;;42.53;22.98;;;;;;;5.53;73.00;101184.41;5122825;29;20155;-68
2021/12/17 03:58:05;;;;;;;40.85;21.23;;;;;;;5.73;71.46;101194.19;5118446;29;20051;-69
2021/12/17 04:00:58;;;;;;;39.05;21.67;;;;;;;5.92;71.41;101182.91;5123269;29;20109;-68
2021/12/17 04:03:49;;;;;;;40.83;21.55;;;;;;;5.98;71.33;101187.97;5123628;28;20070;-68
2021/12/17 04:06:47;;;;;;;40.67;21.40;;;;;;;6.01;71.55;101182.59;5121397;29;20055;-68
2021/12/17 04:09:57;;;;;;;41.50;21.13;;;;;;;5.82;71.71;101169.25;5120354;29;20039;-66
2021/12/17 04:12:57;;;;;;;43.03;22.23;;;;;;;5.85;71.86;101182.28;5122446;29;20158;-68
2021/12/17 04:15:55;;;;;;;43.47;22.65;;;;;;;5.84;71.25;101175.31;5122339;28;20054;-68
2021/12/17 04:18:46;;;;;;;40.75;21.45;;;;;;;6.02;71.00;101189.56;5129467;28;20050;-67
2021/12/17 04:21:36;;;;;;;37.90;21.95;;;;;;;5.98;71.38;101180.06;5122524;29;20054;-67
2021/12/17 04:24:27;;;;;;;39.83;20.75;;;;;;;5.91;71.47;101171.53;5122793;28;20177;-66
2021/12/17 04:27:18;;;;;;;41.35;21.70;;;;;;;5.77;71.97;101168.59;5121839;29;20054;-66
2021/12/17 04:30:09;;;;;;;42.97;21.45;;;;;;;5.86;72.55;101153.28;5108956;29;20054;-69
2021/12/17 04:33:00;;;;;;;40.42;21.17;;;;;;;6.05;71.33;101150.78;5122162;29;20556;-68
2021/12/17 04:35:52;;;;;;;39.72;20.13;;;;;;;5.95;71.34;101151.22;5121778;28;20062;-68
2021/12/17 04:38:43;;;;;;;42.55;21.63;;;;;;;6.06;71.11;101136.72;5107871;29;20162;-66
2021/12/17 04:41:43;;;;;;;41.78;21.42;;;;;;;5.89;71.67;101139.13;5122265;29;20074;-66
2021/12/17 04:44:40;;;;;;;43.05;20.75;;;;;;;5.62;72.44;101138.44;5122222;28;20134;-66
2021/12/17 04:57:21;;;;;;;46.10;24.33;;;;;;;5.98;71.22;101146.69;5121691;29;20565;-67
2021/12/17 05:00:23;;;;;;;36.95;20.35;;;;;;;5.99;71.90;101144.91;5119900;28;20082;-66
2021/12/17 05:03:23;;;;;;;39.25;20.20;;;;;;;5.91;71.44;101139.06;5142697;28;20063;-69
2021/12/17 05:06:15;;;;;;;39.45;20.23;;;;;;;6.04;71.12;101140.31;5116205;29;20557;-67
2021/12/17 05:09:33;;;;;;;42.92;21.15;;;;;;;5.98;71.41;101133.53;5121530;29;20125;-67
2021/12/17 05:19:01;;;;;;;40.22;21.45;;;;;;;5.89;71.75;101133.84;5119048;28;20498;-69
2021/12/17 05:21:56;;;;;;;52.97;26.95;;;;;;;5.90;71.83;101135.59;5121786;29;20525;-66
2021/12/17 05:24:46;;;;;;;38.53;20.45;;;;;;;5.99;72.09;101131.75;5121906;28;20047;-67
2021/12/17 05:27:36;;;;;;;37.13;21.13;;;;;;;5.97;71.41;101123.06;5121243;29;20070;-67
2021/12/17 05:30:31;;;;;;;35.30;20.48;;;;;;;5.96;71.94;101131.88;5122084;29;20057;-67
2021/12/17 05:33:22;;;;;;;36.55;20.05;;;;;;;5.97;71.48;101133.59;5120570;29;20122;-68
2021/12/17 05:36:13;;;;;;;39.53;21.00;;;;;;;5.82;71.24;101141.13;5119109;28;20127;-68
2021/12/17 05:39:15;;;;;;;39.33;22.00;;;;;;;5.73;71.79;101145.91;5132884;28;20523;-68
2021/12/17 05:42:07;;;;;;;38.83;20.85;;;;;;;5.87;71.99;101128.66;5127529;28;20721;-68
2021/12/17 05:45:09;;;;;;;32.35;19.58;;;;;;;5.90;71.38;101140.84;5130316;28;20070;-68
2021/12/17 05:48:04;;;;;;;38.42;21.02;;;;;;;5.81;71.20;101131.53;5114778;29;20182;-67
2021/12/17 05:50:57;;;;;;;37.30;20.63;;;;;;;5.83;71.29;101129.72;5120489;28;20185;-69
2021/12/17 05:53:48;;;;;;;33.88;19.05;;;;;;;5.85;71.64;101129.63;5115513;28;20054;-67
2021/12/17 05:56:39;;;;;;;49.40;23.23;;;;;;;5.77;71.27;101129.09;5117953;28;20144;-68
2021/12/17 05:59:34;;;;;;;66.00;27.70;;;;;;;5.80;71.33;101126.34;5121264;28;20147;-67
2021/12/17 06:02:25;;;;;;;32.88;17.52;;;;;;;5.80;71.28;101142.16;5134053;28;20202;-66
2021/12/17 06:05:17;;;;;;;38.20;18.85;;;;;;;5.74;71.21;101134.47;5115016;28;20109;-66
2021/12/17 06:08:08;;;;;;;35.80;19.40;;;;;;;5.82;71.39;101137.66;5120568;29;20054;-67
2021/12/17 06:10:58;;;;;;;37.80;19.17;;;;;;;5.88;70.48;101134.78;5121153;28;20134;-68
2021/12/17 06:13:48;;;;;;;37.60;21.02;;;;;;;5.78;71.64;101131.66;5121352;29;20414;-68
2021/12/17 06:16:40;;;;;;;36.08;19.75;;;;;;;5.79;71.69;101145.66;5120067;29;20434;-67
2021/12/17 06:19:33;;;;;;;37.40;20.48;;;;;;;5.77;71.51;101137.00;5124206;28;20046;-68
2021/12/17 06:22:24;;;;;;;36.40;20.77;;;;;;;5.92;70.86;101162.69;5120537;28;20058;-68
2021/12/17 06:25:20;;;;;;;36.47;20.20;;;;;;;5.88;71.46;101166.38;5117606;29;20072;-67
2021/12/17 06:28:10;;;;;;;38.80;20.63;;;;;;;5.83;71.35;101163.09;5120367;29;20137;-67
2021/12/17 06:31:01;;;;;;;36.42;20.67;;;;;;;5.86;71.82;101170.84;5119280;29;20118;-68
2021/12/17 06:33:55;;;;;;;37.92;21.33;;;;;;;5.80;71.79;101166.69;5120339;28;20058;-67
2021/12/17 06:36:45;;;;;;;39.03;20.13;;;;;;;5.79;72.05;101161.47;5128153;28;20089;-68
2021/12/17 06:39:36;;;;;;;37.15;20.55;;;;;;;5.82;72.18;101167.47;5120152;28;20070;-68
2021/12/17 06:42:26;;;;;;;38.53;22.63;;;;;;;5.65;72.59;101176.03;5119993;28;20699;-67
2021/12/17 06:45:25;;;;;;;45.55;23.48;;;;;;;5.85;72.24;101184.94;5125867;28;20078;-67
2021/12/17 06:48:20;;;;;;;55.42;27.85;;;;;;;6.01;71.52;101182.59;5127536;28;20091;-67
2021/12/17 07:05:57;;;;;;;40.90;21.42;;;;;;;6.11;71.44;101195.31;5091701;28;20062;-69
2021/12/17 07:21:34;;;;;;;40.17;20.67;;;;;;;5.47;70.62;101189.91;5121102;28;20116;-69
2021/12/17 07:24:48;;;;;;;39.58;20.25;;;;;;;5.26;70.63;101188.91;5120443;29;20056;-69
2021/12/17 07:34:07;;;;;;;28.10;16.38;;;;;;;4.90;70.32;101188.44;5133277;28;20157;-69
2021/12/17 07:39:57;;;;;;;31.17;16.92;;;;;;;4.82;70.86;101182.63;5122211;29;19933;-67
2021/12/17 07:42:54;;;;;;;31.27;16.88;;;;;;;4.67;70.39;101190.13;5123788;29;20186;-68
2021/12/17 07:45:55;;;;;;;31.75;16.38;;;;;;;4.54;70.96;101187.97;5122792;28;20113;-66
2021/12/17 07:48:49;;;;;;;31.00;16.20;;;;;;;4.58;71.23;101189.59;5123379;29;20504;-68
2021/12/17 07:51:39;;;;;;;30.58;17.15;;;;;;;4.49;70.67;101177.59;5122824;29;20506;-67
2021/12/17 07:54:38;;;;;;;27.17;15.15;;;;;;;4.45;71.00;101173.38;5118597;28;20415;-68
2021/12/17 07:57:28;;;;;;;25.38;14.15;;;;;;;4.55;70.50;101190.53;5122765;29;20141;-66
2021/12/17 08:00:18;;;;;;;26.42;14.65;;;;;;;4.38;70.62;101182.38;5123180;29;20527;-68
2021/12/17 08:03:10;;;;;;;31.05;14.75;;;;;;;4.41;70.74;101190.16;5123928;28;20137;-66
2021/12/17 08:06:27;;;;;;;29.30;15.68;;;;;;;4.42;71.53;101183.97;5123441;29;20529;-67
2021/12/17 08:09:39;;;;;;;27.95;16.00;;;;;;;4.52;71.74;101195.91;5124340;28;20047;-66
2021/12/17 08:12:30;;;;;;;28.42;15.45;;;;;;;4.44;70.90;101180.41;5123236;29;20137;-67
2021/12/17 08:15:31;;;;;;;29.70;15.93;;;;;;;4.45;71.21;101199.63;5123852;28;20050;-67
2021/12/17 08:18:42;;;;;;;27.98;15.93;;;;;;;4.42;71.26;101197.97;5125628;29;20105;-67
2021/12/17 08:28:03;;;;;;;26.52;14.52;;;;;;;4.32;71.10;101182.56;5122531;29;20077;-68
2021/12/17 08:30:55;;;;;;;29.88;15.02;;;;;;;4.49;71.52;101201.25;5122362;28;20058;-67
2021/12/17 08:33:47;;;;;;;31.23;16.50;;;;;;;4.54;71.67;101193.22;5122394;29;20066;-70
2021/12/17 08:36:38;;;;;;;30.92;17.15;;;;;;;4.75;71.77;101203.00;5105195;29;20062;-68
2021/12/17 08:39:30;;;;;;;28.98;15.63;;;;;;;4.78;71.92;101202.03;5122544;29;20050;-67
2021/12/17 08:42:22;;;;;;;28.42;16.02;;;;;;;4.82;71.50;101209.75;5120879;28;20051;-68
2021/12/17 08:45:13;;;;;;;30.48;16.75;;;;;;;4.93;71.88;101207.63;5128014;28;20050;-68
2021/12/17 08:48:12;;;;;;;33.47;17.90;;;;;;;5.00;72.40;101199.50;5120114;29;20074;-68
2021/12/17 08:51:09;;;;;;;33.13;18.08;;;;;;;5.16;71.89;101206.78;5121743;29;20058;-68
2021/12/17 08:54:01;;;;;;;38.50;19.42;;;;;;;5.25;71.96;101199.50;5121186;28;20050;-67
2021/12/17 08:56:53;;;;;;;35.88;18.27;;;;;;;5.27;71.54;101197.69;5120757;29;20178;-67
2021/12/17 08:59:48;;;;;;;40.17;20.13;;;;;;;5.17;71.21;101184.84;5121897;29;20051;-68
2021/12/17 09:02:48;;;;;;;33.83;18.17;;;;;;;5.39;71.74;101207.72;5121690;29;20065;-68
2021/12/17 09:05:59;;;;;;;37.90;20.58;;;;;;;5.44;71.63;101208.44;5121379;29;20070;-68
2021/12/17 09:08:59;;;;;;;42.05;21.75;;;;;;;5.56;72.20;101212.34;5121877;29;20045;-68
2021/12/17 09:11:53;;;;;;;42.90;20.95;;;;;;;5.67;71.49;101209.34;5117341;29;20062;-67
2021/12/17 09:14:51;;;;;;;36.60;21.42;;;;;;;5.69;72.19;101189.06;5109293;29;20055;-68
2021/12/17 09:18:07;;;;;;;41.90;22.75;;;;;;;5.83;71.43;101210.47;5123017;29;20178;-67
2021/12/17 09:21:06;;;;;;;50.35;22.95;;;;;;;5.89;71.51;101207.56;5106258;29;20082;-69
2021/12/17 09:24:22;;;;;;;46.33;23.05;;;;;;;6.13;71.53;101224.25;5122470;28;20066;-69
2021/12/17 09:27:49;;;;;;;48.45;23.50;;;;;;;6.08;71.54;101218.28;5121026;29;20050;-68
2021/12/17 09:30:58;;;;;;;43.55;22.83;;;;;;;6.10;71.63;101222.59;5122584;28;20058;-68
2021/12/17 09:33:50;;;;;;;47.20;22.75;;;;;;;6.22;71.49;101225.63;5121919;28;20438;-70
2021/12/17 09:36:40;;;;;;;55.25;24.08;;;;;;;6.20;71.75;101203.78;5122568;29;20054;-68
2021/12/17 09:39:30;;;;;;;44.10;22.10;;;;;;;6.43;71.06;101211.59;5121975;28;20054;-68
2021/12/17 09:42:20;;;;;;;39.25;20.63;;;;;;;6.70;69.65;101224.56;5121772;28;20062;-68
2021/12/17 09:45:12;;;;;;;34.95;18.92;;;;;;;6.38;70.55;101195.13;5107196;29;20062;-68
2021/12/17 09:48:03;;;;;;;38.58;18.55;;;;;;;6.82;69.28;101218.75;5120597;29;21012;-70
2021/12/17 09:50:54;;;;;;;32.38;19.00;;;;;;;6.75;69.65;101198.84;5121325;28;20054;-68
2021/12/17 09:53:46;;;;;;;37.15;18.83;;;;;;;6.91;70.36;101223.63;5121023;28;20049;-68
2021/12/17 09:56:37;;;;;;;33.03;18.48;;;;;;;7.13;69.35;101218.28;5121708;29;20061;-70
2021/12/17 09:59:27;;;;;;;33.28;17.02;;;;;;;7.23;68.39;101219.59;5122231;29;20159;-68
2021/12/17 10:02:16;;;;;;;33.50;16.52;;;;;;;7.32;68.07;101217.47;5121847;29;20058;-68
2021/12/17 10:05:06;;;;;;;29.98;17.17;;;;;;;7.16;68.50;101206.75;5121958;28;20193;-68
2021/12/17 10:08:04;;;;;;;26.42;16.55;;;;;;;7.06;68.38;101217.72;5121487;29;20133;-68
2021/12/17 10:10:58;;;;;;;25.33;14.80;;;;;;;7.28;67.15;101217.63;5121159;28;20511;-70
2021/12/17 10:13:49;;;;;;;24.45;14.27;;;;;;;7.39;66.42;101208.38;5122492;29;20418;-68
2021/12/17 10:16:39;;;;;;;25.58;15.45;;;;;;;7.63;65.56;101212.53;5121760;29;20126;-68
2021/12/17 10:19:44;;;;;;;25.83;14.65;;;;;;;7.27;66.84;101225.59;5121121;29;20112;-68
2021/12/17 10:22:34;;;;;;;19.27;11.75;;;;;;;7.31;66.17;101229.81;5117538;29;20470;-70
2021/12/17 10:25:26;;;;;;;20.92;12.82;;;;;;;7.76;64.92;101229.50;5121663;28;20054;-72
2021/12/17 10:28:16;;;;;;;22.88;13.13;;;;;;;7.71;66.07;101226.22;5121085;28;20170;-69
2021/12/17 10:31:09;;;;;;;25.33;12.93;;;;;;;7.81;65.68;101220.50;5121736;29;20062;-70
2021/12/17 10:34:03;;;;;;;22.15;13.00;;;;;;;8.12;63.41;101217.28;5121219;28;20134;-68
2021/12/17 10:36:53;;;;;;;21.77;12.68;;;;;;;7.91;65.16;101224.44;5120840;28;20047;-69
2021/12/17 10:39:44;;;;;;;22.30;10.95;;;;;;;7.99;64.79;101214.38;5117321;28;20050;-69
2021/12/17 10:42:38;;;;;;;23.23;10.55;;;;;;;7.77;65.16;101181.03;5130081;28;20422;-69
2021/12/17 10:45:32;;;;;;;19.17;10.80;;;;;;;7.99;64.29;101201.16;5121421;28;20046;-70
2021/12/17 10:48:29;;;;;;;16.55;10.10;;;;;;;7.88;63.95;101206.09;5121395;28;20510;-70
2021/12/17 10:54:32;;;;;;;17.08;10.25;;;;;;;7.74;64.32;101210.22;5121517;29;20078;-69
2021/12/17 10:57:29;;;;;;;16.17;9.77;;;;;;;7.80;64.94;101190.59;5120843;29;20055;-70
2021/12/17 11:00:23;;;;;;;15.23;9.30;;;;;;;8.20;64.50;101192.19;5122031;28;20130;-69
2021/12/17 11:03:13;;;;;;;16.30;10.10;;;;;;;8.30;64.17;101207.59;5124991;29;20091;-70
2021/12/17 11:06:04;;;;;;;14.05;9.52;;;;;;;8.20;62.78;101188.69;5124898;28;20051;-68
2021/12/17 11:08:54;;;;;;;19.38;10.40;;;;;;;8.11;64.30;101179.44;5125216;28;20183;-70
2021/12/17 11:11:47;;;;;;;17.98;11.40;;;;;;;8.30;62.24;101186.47;5122397;29;20605;-69
2021/12/17 11:14:37;;;;;;;17.88;11.18;;;;;;;8.60;62.57;101179.66;5125272;28;20564;-68
2021/12/17 11:17:27;;;;;;;14.63;9.30;;;;;;;8.73;62.39;101174.59;5124656;29;20074;-69
2021/12/17 11:20:33;;;;;;;13.55;9.10;;;;;;;8.39;62.42;101170.19;5125190;29;20059;-69
2021/12/17 11:23:24;;;;;;;13.68;8.68;;;;;;;8.59;63.69;101167.38;5123700;28;20054;-68
2021/12/17 11:26:14;;;;;;;14.13;9.23;;;;;;;8.59;62.04;101172.66;5124014;28;20057;-69
2021/12/17 11:29:04;;;;;;;14.57;8.90;;;;;;;8.84;61.79;101172.28;5127435;28;20534;-70
2021/12/17 11:31:54;;;;;;;14.13;8.80;;;;;;;8.79;63.33;101161.06;5127102;28;20058;-70
2021/12/17 11:34:45;;;;;;;18.45;9.20;;;;;;;8.43;63.69;101175.22;5117058;28;20051;-69
2021/12/17 11:37:36;;;;;;;21.17;9.65;;;;;;;9.02;61.97;101177.53;5150669;28;20043;-69
2021/12/17 11:40:40;;;;;;;14.93;8.43;;;;;;;8.98;61.65;101173.34;5121089;28;20047;-68
2021/12/17 11:43:49;;;;;;;14.20;9.00;;;;;;;9.11;61.37;101167.34;5134557;28;20054;-67
2021/12/17 11:46:40;;;;;;;14.10;9.30;;;;;;;9.05;62.25;101162.34;5128185;28;20085;-68
2021/12/17 11:49:36;;;;;;;14.55;8.68;;;;;;;9.09;62.11;101174.47;5124483;29;20133;-70
2021/12/17 11:52:32;;;;;;;17.13;9.77;;;;;;;9.18;62.80;101163.41;5124109;28;20052;-69
2021/12/17 11:55:22;;;;;;;13.30;8.23;;;;;;;9.24;62.13;101170.19;5120304;28;20091;-69
2021/12/17 11:58:34;;;;;;;15.65;9.45;;;;;;;9.36;61.54;101147.47;5122935;29;20819;-70
2021/12/17 12:02:02;;;;;;;14.93;9.75;;;;;;;9.22;62.76;101153.53;5125915;28;20077;-72
2021/12/17 12:04:56;;;;;;;19.17;10.20;;;;;;;9.09;62.97;101155.09;5129881;28;20059;-73
2021/12/17 12:07:46;;;;;;;17.13;10.35;;;;;;;9.01;63.93;101152.03;5131149;28;20561;-69
2021/12/17 12:10:36;;;;;;;16.73;9.35;;;;;;;9.31;62.90;101158.31;5123713;28;20046;-70
2021/12/17 12:13:56;;;;;;;16.27;8.98;;;;;;;8.83;63.82;101156.47;5119444;28;20062;-71
2021/12/17 12:16:47;;;;;;;21.88;10.32;;;;;;;8.91;63.92;101147.22;5111219;28;20155;-71
2021/12/17 12:19:50;;;;;;;14.55;9.40;;;;;;;9.51;62.34;101159.03;5125781;28;20532;-72
2021/12/17 12:22:43;;;;;;;15.32;8.77;;;;;;;8.88;62.51;101150.03;5123592;28;20047;-69
2021/12/17 12:25:33;;;;;;;14.13;8.70;;;;;;;9.27;61.69;101140.91;5119887;28;20499;-68
2021/12/17 12:28:46;;;;;;;13.95;8.70;;;;;;;9.45;61.32;101139.03;5136874;28;20058;-68
2021/12/17 12:32:18;;;;;;;20.42;10.30;;;;;;;9.60;61.43;101145.25;5121723;29;20066;-68
2021/12/17 12:35:09;;;;;;;14.27;8.82;;;;;;;9.95;61.67;101139.81;5118027;28;20126;-69
2021/12/17 12:38:20;;;;;;;13.60;9.18;;;;;;;9.92;61.49;101126.72;5109297;28;20035;-69
2021/12/17 12:41:14;;;;;;;14.98;8.63;;;;;;;9.80;61.06;101121.19;5111918;28;20043;-68
2021/12/17 12:44:04;;;;;;;15.75;9.00;;;;;;;9.92;61.10;101134.66;5108235;28;20485;-69
2021/12/17 12:46:56;;;;;;;16.58;9.27;;;;;;;9.72;61.97;101131.34;5126474;28;20039;-69
2021/12/17 12:49:54;;;;;;;15.50;9.68;;;;;;;9.66;62.46;101139.63;5126331;28;20055;-70
2021/12/17 12:52:52;;;;;;;14.00;9.23;;;;;;;9.75;62.20;101132.97;5120261;28;20047;-69
2021/12/17 12:55:45;;;;;;;14.40;9.60;;;;;;;9.89;62.67;101139.19;5118571;28;20043;-69
2021/12/17 12:58:42;;;;;;;17.40;9.90;;;;;;;9.92;63.29;101132.88;5130100;28;20098;-68
2021/12/17 13:01:32;;;;;;;16.15;10.02;;;;;;;10.11;60.79;101130.88;5123052;28;20049;-67
2021/12/17 13:04:23;;;;;;;21.52;10.07;;;;;;;9.60;61.16;101121.44;5118998;28;20178;-69
2021/12/17 13:07:14;;;;;;;14.40;9.43;;;;;;;9.94;61.99;101138.09;5115886;28;20046;-68
2021/12/17 13:10:15;;;;;;;19.95;10.27;;;;;;;9.94;61.44;101127.50;5116325;28;20071;-68
2021/12/17 13:13:18;;;;;;;15.98;10.52;;;;;;;9.89;60.82;101136.53;5115047;28;20051;-68
2021/12/17 13:16:41;;;;;;;21.55;11.70;;;;;;;9.76;61.79;101135.53;5121138;28;20046;-69
2021/12/17 13:22:55;;;;;;;21.35;12.18;;;;;;;9.63;62.15;101131.84;5119341;28;20070;-69
2021/12/17 13:25:45;;;;;;;17.45;11.73;;;;;;;9.54;62.62;101130.59;5128573;28;20058;-69
2021/12/17 13:29:05;;;;;;;18.23;12.77;;;;;;;9.52;62.11;101124.50;5126535;28;20052;-69
2021/12/17 13:32:07;;;;;;;20.77;12.63;;;;;;;9.56;61.95;101110.16;5111038;28;20087;-69
2021/12/17 13:34:59;;;;;;;21.02;12.70;;;;;;;9.71;62.09;101126.16;5131159;28;20173;-69
2021/12/17 13:37:56;;;;;;;25.15;13.90;;;;;;;8.94;64.25;101120.59;5117025;29;20230;-66
2021/12/17 13:40:52;;;;;;;23.77;14.02;;;;;;;8.84;64.47;101114.09;5120862;29;20118;-65
2021/12/17 13:43:43;;;;;;;23.67;14.57;;;;;;;8.30;65.33;101093.94;5119078;28;20426;-66
2021/12/17 13:46:36;;;;;;;23.33;13.63;;;;;;;8.52;64.75;101115.75;5136471;28;20046;-66
2021/12/17 13:49:26;;;;;;;21.83;14.73;;;;;;;8.78;65.44;101110.91;5121780;28;20113;-65
2021/12/17 13:52:21;;;;;;;23.58;15.35;;;;;;;9.37;62.37;101130.63;5130484;28;20058;-65
2021/12/17 13:55:13;;;;;;;22.63;15.45;;;;;;;9.48;62.63;101125.63;5117693;28;20268;-65
2021/12/17 13:58:23;;;;;;;23.90;15.35;;;;;;;9.18;63.32;101115.78;5126550;28;20539;-66
2021/12/17 14:01:20;;;;;;;24.75;15.52;;;;;;;9.53;63.00;101130.66;5127883;28;20125;-68
2021/12/17 14:04:14;;;;;;;22.13;13.95;;;;;;;8.81;62.91;101102.81;5116038;28;20075;-69
2021/12/17 14:07:06;;;;;;;20.80;13.93;;;;;;;8.69;63.95;101131.59;5120523;29;20052;-69
2021/12/17 14:10:09;;;;;;;25.52;14.30;;;;;;;9.38;63.10;101141.16;5136500;28;20457;-66
2021/12/17 14:13:01;;;;;;;22.08;13.90;;;;;;;9.40;62.43;101149.00;5120979;28;20166;-66
2021/12/17 14:16:13;;;;;;;25.02;14.18;;;;;;;9.32;62.75;101148.59;5127044;28;20051;-69
2021/12/17 14:19:03;;;;;;;19.70;13.55;;;;;;;9.36;62.57;101156.25;5123082;28;20134;-67
2021/12/17 14:21:53;;;;;;;22.48;14.95;;;;;;;9.10;62.69;101162.94;5120243;29;20040;-68
2021/12/17 14:24:43;;;;;;;28.15;16.33;;;;;;;9.25;62.60;101166.59;5121322;28;20117;-67
2021/12/17 14:27:44;;;;;;;24.80;14.07;;;;;;;9.02;62.72;101170.44;5119113;28;20122;-66
2021/12/17 14:30:35;;;;;;;39.20;18.83;;;;;;;9.06;62.07;101172.00;5118358;28;20050;-66
2021/12/17 14:33:39;;;;;;;32.50;18.85;;;;;;;8.99;63.30;101170.63;5120425;28;20079;-68
2021/12/17 14:36:36;;;;;;;84.27;34.83;;;;;;;9.04;62.91;101173.00;5107548;28;20103;-67
2021/12/17 14:39:34;;;;;;;25.98;15.10;;;;;;;8.99;62.64;101177.69;5120338;28;20311;-66
2021/12/17 14:42:30;;;;;;;69.85;29.52;;;;;;;8.96;62.69;101156.69;5133564;28;20058;-66
2021/12/17 14:45:23;;;;;;;47.88;23.77;;;;;;;8.95;62.42;101161.13;5124721;28;20070;-68
2021/12/17 14:48:20;;;;;;;31.23;17.45;;;;;;;9.02;61.70;101169.59;5121069;28;20047;-65
2021/12/17 15:06:25;;;;;;;35.33;18.17;;;;;;;8.54;62.74;101176.47;5123736;29;20061;-68
2021/12/17 15:09:16;;;;;;;27.05;15.65;;;;;;;8.36;63.58;101184.38;5122725;29;20043;-67
2021/12/17 15:12:40;;;;;;;47.03;26.48;;;;;;;8.50;63.22;101173.13;5123795;29;20061;-67
2021/12/17 15:15:25;;;;;;;24.80;14.77;;;;;;;8.58;63.01;101183.34;5123964;28;20066;-67
2021/12/17 15:18:19;;;;;;;19.63;12.13;;;;;;;8.33;63.03;101186.31;5120382;29;20063;-67
2021/12/17 15:21:10;;;;;;;19.67;13.38;;;;;;;8.44;62.94;101190.19;5123952;28;20124;-67
2021/12/17 15:24:00;;;;;;;17.90;12.15;;;;;;;8.46;63.23;101182.16;5123837;28;20521;-67
2021/12/17 15:26:50;;;;;;;22.05;14.60;;;;;;;8.34;62.81;101180.94;5123729;29;20054;-67
2021/12/17 15:29:40;;;;;;;21.33;12.15;;;;;;;8.53;62.96;101180.91;5124161;29;20133;-67
2021/12/17 15:32:30;;;;;;;20.48;13.75;;;;;;;8.39;63.12;101188.69;5131078;28;20073;-68
2021/12/17 15:35:23;;;;;;;25.67;15.02;;;;;;;8.47;63.45;101197.94;5120587;28;20103;-68
2021/12/17 15:38:14;;;;;;;48.28;27.35;;;;;;;8.26;63.61;101190.19;5123746;28;20058;-68
2021/12/17 15:41:04;;;;;;;31.90;19.73;;;;;;;8.38;62.78;101185.19;5128341;28;20524;-70
2021/12/17 15:43:54;;;;;;;24.13;16.67;;;;;;;8.33;62.68;101170.44;5123398;28;20055;-68
2021/12/17 15:46:47;;;;;;;21.13;13.23;;;;;;;8.19;62.12;101176.41;5122740;28;20505;-68
2021/12/17 15:49:37;;;;;;;21.27;14.00;;;;;;;8.31;62.35;101185.50;5139132;28;20057;-68
2021/12/17 15:52:33;;;;;;;18.77;13.18;;;;;;;8.24;63.17;101187.59;5127193;28;20060;-68
2021/12/17 15:55:25;;;;;;;23.05;14.35;;;;;;;8.10;62.98;101182.16;5124192;29;20186;-69
2021/12/17 15:58:15;;;;;;;23.95;14.43;;;;;;;7.93;63.12;101178.53;5123723;29;20047;-68
2021/12/17 16:01:10;;;;;;;19.23;12.65;;;;;;;7.72;63.26;101187.47;5124116;29;20063;-68
2021/12/17 16:04:00;;;;;;;22.38;14.60;;;;;;;7.66;63.21;101193.03;5123224;29;20054;-68
2021/12/17 16:06:53;;;;;;;20.30;13.35;;;;;;;7.48;64.08;101187.69;5107567;28;20058;-69
2021/12/17 16:10:27;;;;;;;22.98;14.43;;;;;;;7.43;64.47;101184.41;5130897;28;20047;-68